createdAt,value
2022-07-27T12:50:29.049Z,2.25
2022-07-27T12:52:56.762Z,1.92
2022-07-27T12:55:24.944Z,2.20
2022-07-27T12:57:56.783Z,1.92
2022-07-27T13:00:33.568Z,2.03
2022-07-27T13:03:03.418Z,2.65
2022-07-27T13:05:32.125Z,2.30
2022-07-27T13:08:00.949Z,3.03
2022-07-27T13:10:28.640Z,3.15
2022-07-27T13:12:56.977Z,2.70
2022-07-27T13:15:27.677Z,2.90
2022-07-27T13:17:55.392Z,2.80
2022-07-27T13:20:28.119Z,2.50
2022-07-27T13:22:55.721Z,1.88
2022-07-27T13:25:23.340Z,2.28
2022-07-27T13:27:50.985Z,2.28
2022-07-27T13:30:18.999Z,2.10
2022-07-27T13:32:47.105Z,2.30
2022-07-27T13:37:43.617Z,3.65
2022-07-27T13:40:11.731Z,2.97
2022-07-27T13:45:10.490Z,3.10
2022-07-27T13:47:42.669Z,3.28
2022-07-27T13:50:18.230Z,3.10
2022-07-27T13:52:49.349Z,3.00
2022-07-27T13:55:18.047Z,2.90
2022-07-27T13:57:47.063Z,3.10
2022-07-27T14:00:16.195Z,3.30
2022-07-27T14:02:45.363Z,3.03
2022-07-27T14:05:14.259Z,3.15
2022-07-27T14:07:43.632Z,2.78
2022-07-27T14:10:31.021Z,2.95
2022-07-27T14:13:07.933Z,3.28
2022-07-27T14:15:52.983Z,3.28
2022-07-27T14:18:22.333Z,2.92
2022-07-27T14:20:49.944Z,2.70
2022-07-27T14:23:17.654Z,2.90
2022-07-27T14:25:45.232Z,2.53
2022-07-27T14:28:12.724Z,2.40
2022-07-27T14:30:40.279Z,2.50
2022-07-27T14:33:07.873Z,2.35
2022-07-27T14:35:40.250Z,2.70
2022-07-27T14:38:09.544Z,2.35
2022-07-27T14:40:38.292Z,2.35
2022-07-27T14:43:06.572Z,2.20
2022-07-27T14:45:45.396Z,2.70
2022-07-27T14:48:25.314Z,1.92
2022-07-27T14:50:56.056Z,1.85
2022-07-27T14:53:26.639Z,1.90
2022-07-27T14:55:54.858Z,2.10
2022-07-27T14:58:22.455Z,2.00
2022-07-27T15:00:50.148Z,1.77
2022-07-27T15:03:19.789Z,2.17
2022-07-27T15:05:49.971Z,1.80
2022-07-27T15:08:21.413Z,1.80
2022-07-27T15:10:51.594Z,1.60
2022-07-27T15:13:19.447Z,1.48
2022-07-27T15:15:50.832Z,2.03
2022-07-27T15:18:21.077Z,1.60
2022-07-27T15:20:48.731Z,1.67
2022-07-27T15:23:16.789Z,1.48
2022-07-27T15:28:12.869Z,1.23
2022-07-27T15:30:40.457Z,1.50
2022-07-27T15:33:08.015Z,1.20
2022-07-27T15:35:35.856Z,1.30
2022-07-27T15:40:37.149Z,1.40
2022-07-27T15:43:07.600Z,1.30
2022-07-27T15:45:40.905Z,1.42
2022-07-27T15:48:10.313Z,1.30
2022-07-27T15:50:40.119Z,1.40
2022-07-27T15:53:08.440Z,1.55
2022-07-27T15:55:37.691Z,1.65
2022-07-27T15:58:06.461Z,1.33
2022-07-27T16:00:39.559Z,1.30
2022-07-27T16:03:13.047Z,1.30
2022-07-27T16:05:43.941Z,1.50
2022-07-27T16:08:11.748Z,1.75
2022-07-27T16:10:40.596Z,1.70
2022-07-27T16:13:10.281Z,1.63
2022-07-27T16:15:56.391Z,1.30
2022-07-27T16:18:24.230Z,1.17
2022-07-27T16:20:52.468Z,1.05
2022-07-27T16:23:24.704Z,1.67
2022-07-27T16:26:04.627Z,1.30
2022-07-27T16:28:39.075Z,1.20
2022-07-27T16:31:09.196Z,1.42
2022-07-27T16:33:37.273Z,1.10
2022-07-27T16:36:06.013Z,0.90
2022-07-27T16:38:36.808Z,1.08
2022-07-27T16:41:07.364Z,0.80
2022-07-27T16:43:38.514Z,0.70
2022-07-27T16:46:10.261Z,0.98
2022-07-27T16:48:42.158Z,0.80
2022-07-27T16:51:14.848Z,0.80
2022-07-27T16:53:45.573Z,1.10
2022-07-27T16:56:13.697Z,1.00
2022-07-27T17:01:09.173Z,0.80
2022-07-27T17:06:06.749Z,1.05
2022-07-27T17:08:36.410Z,0.77
2022-07-27T17:11:06.172Z,0.68
2022-07-27T17:13:35.154Z,0.90
2022-07-27T17:16:04.593Z,0.75
2022-07-27T17:18:39.418Z,0.70
2022-07-27T17:21:12.243Z,0.80
2022-07-27T17:23:42.123Z,0.85
2022-07-27T17:26:10.453Z,0.80
2022-07-27T17:28:39.991Z,0.85
2022-07-27T17:31:12.352Z,0.70
2022-07-27T17:33:41.553Z,0.70
2022-07-27T17:36:14.542Z,1.02
2022-07-27T17:38:46.794Z,1.00
2022-07-27T17:41:19.348Z,1.05
2022-07-27T17:43:52.676Z,1.17
2022-07-27T17:46:21.914Z,1.10
2022-07-27T17:48:49.736Z,0.90
2022-07-27T17:51:17.815Z,1.10
2022-07-27T17:53:47.844Z,0.90
2022-07-27T17:56:15.424Z,1.15
2022-07-27T17:58:43.266Z,0.93
2022-07-27T18:01:11.229Z,0.70
2022-07-27T18:03:40.121Z,1.08
2022-07-27T18:06:08.252Z,1.10
2022-07-27T18:08:36.463Z,0.90
2022-07-27T18:11:04.053Z,0.93
2022-07-27T18:13:38.775Z,0.80
2022-07-27T18:16:09.402Z,0.90
2022-07-27T18:18:37.548Z,1.00
2022-07-27T18:21:05.699Z,0.85
2022-07-27T18:26:01.206Z,0.80
2022-07-27T18:28:28.797Z,0.90
2022-07-27T18:30:56.639Z,1.20
2022-07-27T18:33:26.145Z,1.10
2022-07-27T18:36:05.004Z,0.82
2022-07-27T18:38:32.622Z,0.75
2022-07-27T18:41:00.412Z,0.90
2022-07-27T18:43:27.910Z,0.73
2022-07-27T18:45:55.767Z,0.65
2022-07-27T18:48:23.470Z,0.75
2022-07-27T18:50:53.516Z,0.93
2022-07-27T18:53:21.056Z,0.80
2022-07-27T18:55:52.726Z,0.90
2022-07-27T18:58:23.503Z,1.17
2022-07-27T19:00:51.041Z,0.82
2022-07-27T19:03:19.934Z,0.93
2022-07-27T19:05:49.397Z,1.08
2022-07-27T19:08:19.812Z,0.77
2022-07-27T19:10:47.478Z,1.10
2022-07-27T19:13:15.313Z,1.00
2022-07-27T19:15:43.316Z,0.88
2022-07-27T19:18:10.979Z,0.90
2022-07-27T19:20:38.576Z,0.85
2022-07-27T19:23:07.740Z,0.93
2022-07-27T19:25:35.409Z,0.95
2022-07-27T19:28:04.305Z,1.02
2022-07-27T19:30:32.053Z,1.08
2022-07-27T19:33:00.006Z,1.10
2022-07-27T19:35:27.660Z,1.00
2022-07-27T19:37:55.351Z,1.20
2022-07-27T19:43:10.879Z,0.95
2022-07-27T19:45:38.545Z,0.95
2022-07-27T19:48:06.693Z,1.13
2022-07-27T19:53:02.646Z,1.00
2022-07-27T19:58:00.193Z,0.85
2022-07-27T20:00:30.799Z,1.17
2022-07-27T20:02:58.389Z,0.93
2022-07-27T20:05:26.066Z,0.82
2022-07-27T20:07:53.656Z,0.80
2022-07-27T20:10:21.854Z,0.77
2022-07-27T20:15:16.834Z,0.93
2022-07-27T20:17:44.491Z,0.88
2022-07-27T20:20:12.353Z,0.77
2022-07-27T20:22:40.985Z,1.17
2022-07-27T20:25:10.643Z,0.90
2022-07-27T20:27:38.567Z,0.73
2022-07-27T20:30:07.211Z,1.00
2022-07-27T20:32:35.323Z,0.82
2022-07-27T20:35:03.688Z,1.00
2022-07-27T20:37:31.311Z,1.23
2022-07-27T20:39:58.851Z,1.00
2022-07-27T20:42:26.892Z,0.80
2022-07-27T20:44:54.567Z,1.10
2022-07-27T20:47:22.216Z,1.20
2022-07-27T20:49:49.765Z,0.88
2022-07-27T20:52:17.616Z,1.10
2022-07-27T20:54:45.124Z,1.13
2022-07-27T20:57:12.663Z,0.98
2022-07-27T20:59:40.180Z,1.08
2022-07-27T21:02:08.292Z,1.00
2022-07-27T21:07:03.375Z,1.30
2022-07-27T21:09:31.622Z,1.38
2022-07-27T21:11:59.326Z,1.23
2022-07-27T21:14:26.903Z,1.50
2022-07-27T21:16:54.579Z,1.10
2022-07-27T21:19:22.717Z,4.18
2022-07-27T21:21:50.384Z,1.60
2022-07-27T21:24:19.988Z,1.30
2022-07-27T21:26:49.988Z,2.00
2022-07-27T21:29:19.200Z,1.50
2022-07-27T21:31:48.352Z,2.45
2022-07-27T21:34:18.992Z,1.50
2022-07-27T21:36:47.168Z,1.60
2022-07-27T21:41:42.432Z,1.20
2022-07-27T21:44:10.275Z,1.30
2022-07-27T21:49:05.555Z,1.30
2022-07-27T21:51:33.297Z,1.50
2022-07-27T21:54:00.990Z,1.27
2022-07-27T21:56:28.895Z,1.50
2022-07-27T21:58:56.621Z,1.52
2022-07-27T22:01:24.227Z,1.27
2022-07-27T22:03:51.928Z,1.40
2022-07-27T22:06:19.555Z,1.45
2022-07-27T22:08:47.260Z,1.42
2022-07-27T22:11:14.865Z,1.67
2022-07-27T22:13:42.357Z,1.40
2022-07-27T22:16:12.470Z,1.30
2022-07-27T22:18:40.143Z,1.60
2022-07-27T22:21:08.740Z,1.30
2022-07-27T22:23:36.250Z,1.58
2022-07-27T22:26:03.894Z,1.50
2022-07-27T22:28:31.461Z,1.55
2022-07-27T22:31:20.463Z,1.55
2022-07-27T22:33:46.587Z,1.60
2022-07-27T22:36:14.229Z,1.75
2022-07-27T22:38:41.772Z,1.63
2022-07-27T22:41:09.314Z,1.50
2022-07-27T22:43:37.022Z,1.65
2022-07-27T22:46:05.635Z,1.60
2022-07-27T22:48:33.391Z,1.60
2022-07-27T22:51:00.996Z,1.63
2022-07-27T22:53:28.625Z,1.52
2022-07-27T22:55:56.263Z,1.85
2022-07-27T22:58:23.766Z,2.00
2022-07-27T23:00:54.675Z,2.10
2022-07-27T23:03:26.630Z,2.13
2022-07-27T23:05:54.649Z,2.00
2022-07-27T23:08:22.170Z,1.60
2022-07-27T23:10:49.763Z,1.50
2022-07-27T23:13:22.925Z,1.55
2022-07-27T23:15:50.725Z,1.60
2022-07-27T23:18:18.470Z,1.40
2022-07-27T23:20:46.162Z,1.85
2022-07-27T23:23:16.769Z,1.33
2022-07-27T23:25:49.094Z,1.63
2022-07-27T23:28:17.447Z,1.27
2022-07-27T23:30:45.037Z,1.50
2022-07-27T23:33:12.632Z,1.25
2022-07-27T23:35:40.236Z,1.60
2022-07-27T23:38:07.762Z,1.30
2022-07-27T23:40:35.625Z,1.40
2022-07-27T23:43:03.188Z,1.30
2022-07-27T23:45:30.760Z,1.60
2022-07-27T23:47:58.343Z,1.52
2022-07-27T23:50:26.394Z,1.30
2022-07-27T23:52:54.013Z,1.45
2022-07-27T23:55:21.916Z,1.98
2022-07-27T23:57:49.514Z,2.03
